createdAt,value
2018-08-19T00:01:16.850Z,13.93
2018-08-19T00:03:55.180Z,14.77
2018-08-19T00:06:31.437Z,14.70
2018-08-19T00:09:14.576Z,15.20
2018-08-19T00:11:51.455Z,15.63
2018-08-19T00:14:31.283Z,15.17
2018-08-19T00:17:07.145Z,14.03
2018-08-19T00:19:42.687Z,13.93
2018-08-19T00:22:18.941Z,15.07
2018-08-19T00:24:54.498Z,15.03
2018-08-19T00:27:31.016Z,15.30
2018-08-19T00:30:09.995Z,14.57
2018-08-19T00:32:48.090Z,14.80
2018-08-19T00:35:24.669Z,14.43
2018-08-19T00:38:02.615Z,13.80
2018-08-19T00:40:39.939Z,16.83
2018-08-19T00:43:19.293Z,15.33
2018-08-19T00:45:55.951Z,14.63
2018-08-19T00:48:33.769Z,14.97
2018-08-19T00:51:09.431Z,15.57
2018-08-19T00:53:44.945Z,14.83
2018-08-19T00:56:20.403Z,15.50
2018-08-19T00:58:56.462Z,15.63
2018-08-19T01:01:35.414Z,14.40
2018-08-19T01:04:11.747Z,14.67
2018-08-19T01:06:52.519Z,14.70
2018-08-19T01:09:30.372Z,16.37
2018-08-19T01:12:05.643Z,15.93
2018-08-19T01:14:41.094Z,14.67
2018-08-19T01:17:16.444Z,15.20
2018-08-19T01:19:53.294Z,15.20
2018-08-19T01:22:29.266Z,15.80
2018-08-19T01:25:06.368Z,15.87
2018-08-19T01:27:42.596Z,15.80
2018-08-19T01:30:22.554Z,16.17
2018-08-19T01:32:57.694Z,16.27
2018-08-19T01:35:40.196Z,16.43
2018-08-19T01:38:15.860Z,17.23
2018-08-19T01:40:52.187Z,17.53
2018-08-19T01:43:27.449Z,16.83
2018-08-19T01:46:03.916Z,16.40
2018-08-19T01:48:40.299Z,17.27
2018-08-19T01:51:16.533Z,16.53
2018-08-19T01:53:52.670Z,19.40
2018-08-19T01:56:28.147Z,16.00
2018-08-19T01:59:05.438Z,18.17
2018-08-19T02:01:54.572Z,18.17
2018-08-19T02:04:32.687Z,17.50
2018-08-19T02:07:09.579Z,17.50
2018-08-19T02:10:02.013Z,17.53
2018-08-19T02:12:40.322Z,18.17
2018-08-19T02:15:15.974Z,17.73
2018-08-19T02:17:57.441Z,19.00
2018-08-19T02:20:40.512Z,17.60
2018-08-19T02:23:16.307Z,17.90
2018-08-19T02:25:53.010Z,17.60
2018-08-19T02:28:28.765Z,17.27
2018-08-19T02:31:05.121Z,19.60
2018-08-19T02:33:40.775Z,17.80
2018-08-19T02:36:16.105Z,18.17
2018-08-19T02:38:51.979Z,17.87
2018-08-19T02:41:29.195Z,19.43
2018-08-19T02:44:04.837Z,16.80
2018-08-19T02:46:40.529Z,18.67
2018-08-19T02:49:18.430Z,17.37
2018-08-19T02:51:54.494Z,17.37
2018-08-19T02:54:30.820Z,18.50
2018-08-19T02:57:07.734Z,17.10
2018-08-19T02:59:43.648Z,17.00
2018-08-19T03:02:30.508Z,17.47
2018-08-19T03:05:09.132Z,17.27
2018-08-19T03:07:46.002Z,17.73
2018-08-19T03:10:22.148Z,17.37
2018-08-19T03:12:58.518Z,18.27
2018-08-19T03:15:37.451Z,19.97
2018-08-19T03:18:15.152Z,18.83
2018-08-19T03:20:49.974Z,17.93
2018-08-19T03:23:26.655Z,18.53
2018-08-19T03:26:02.803Z,18.70
2018-08-19T03:28:39.783Z,20.17
2018-08-19T03:31:16.364Z,19.73
2018-08-19T03:33:54.018Z,20.53
2018-08-19T03:36:32.417Z,18.97
2018-08-19T03:39:16.552Z,19.10
2018-08-19T03:41:52.355Z,21.00
2018-08-19T03:44:28.320Z,19.63
2018-08-19T03:47:09.098Z,17.53
2018-08-19T03:49:45.135Z,17.00
2018-08-19T03:52:20.958Z,19.17
2018-08-19T03:54:57.738Z,20.80
2018-08-19T03:57:34.385Z,19.70
2018-08-19T04:00:12.128Z,19.87
2018-08-19T04:02:50.344Z,19.93
2018-08-19T04:05:41.358Z,18.40
2018-08-19T04:08:18.202Z,19.33
2018-08-19T04:10:54.688Z,20.33
2018-08-19T04:13:38.219Z,21.10
2018-08-19T04:16:15.048Z,23.43
2018-08-19T04:18:50.705Z,19.93
2018-08-19T04:21:27.208Z,21.30
2018-08-19T04:24:04.789Z,19.60
2018-08-19T04:26:41.470Z,20.13
2018-08-19T04:29:27.165Z,21.80
2018-08-19T04:32:03.954Z,19.03
2018-08-19T04:34:40.602Z,18.93
2018-08-19T04:37:16.140Z,19.93
2018-08-19T04:39:53.031Z,23.20
2018-08-19T04:42:30.834Z,20.70
2018-08-19T04:45:06.691Z,19.70
2018-08-19T04:47:44.166Z,20.53
2018-08-19T04:50:18.858Z,21.33
2018-08-19T04:52:54.857Z,21.10
2018-08-19T04:55:30.954Z,19.63
2018-08-19T04:58:07.186Z,22.33
2018-08-19T05:00:44.046Z,21.23
2018-08-19T05:03:19.919Z,19.03
2018-08-19T05:05:58.325Z,22.07
2018-08-19T05:08:34.569Z,19.50
2018-08-19T05:11:10.118Z,18.73
2018-08-19T05:13:45.756Z,19.00
2018-08-19T05:16:20.695Z,19.63
2018-08-19T05:19:02.605Z,20.13
2018-08-19T05:21:39.158Z,18.17
2018-08-19T05:24:15.434Z,17.80
2018-08-19T05:26:54.965Z,18.87
2018-08-19T05:29:30.631Z,19.77
2018-08-19T05:32:09.462Z,17.93
2018-08-19T05:34:45.595Z,18.00
2018-08-19T05:37:23.602Z,17.67
2018-08-19T05:39:59.487Z,18.10
2018-08-19T05:42:36.952Z,17.77
2018-08-19T05:45:12.894Z,17.43
2018-08-19T05:47:58.801Z,16.93
2018-08-19T05:50:36.243Z,17.83
2018-08-19T05:53:12.353Z,18.80
2018-08-19T05:55:48.430Z,18.03
2018-08-19T05:58:25.278Z,17.97
2018-08-19T06:01:01.879Z,17.07
2018-08-19T06:03:37.689Z,17.73
2018-08-19T06:06:13.439Z,18.60
2018-08-19T06:08:50.441Z,17.53
2018-08-19T06:11:27.705Z,18.93
2018-08-19T06:14:02.625Z,20.77
2018-08-19T06:16:39.837Z,19.93
2018-08-19T06:19:17.092Z,18.53
2018-08-19T06:21:54.313Z,18.20
2018-08-19T06:24:30.858Z,19.40
2018-08-19T06:27:08.090Z,18.00
2018-08-19T06:29:54.657Z,18.73
2018-08-19T06:32:31.845Z,19.03
2018-08-19T06:35:08.150Z,18.33
2018-08-19T06:37:44.542Z,17.90
2018-08-19T06:40:24.576Z,17.93
2018-08-19T06:43:02.199Z,17.87
2018-08-19T06:45:38.786Z,18.97
2018-08-19T06:48:14.615Z,17.70
2018-08-19T06:50:52.006Z,18.70
2018-08-19T06:53:30.034Z,18.60
2018-08-19T06:56:06.889Z,17.67
2018-08-19T06:58:42.752Z,17.30
2018-08-19T07:01:19.829Z,17.87
2018-08-19T07:03:57.019Z,16.40
2018-08-19T07:06:33.898Z,18.03
2018-08-19T07:09:09.403Z,16.03
2018-08-19T07:11:58.586Z,15.90
2018-08-19T07:14:35.251Z,16.57
2018-08-19T07:17:12.348Z,14.73
2018-08-19T07:19:48.652Z,15.50
2018-08-19T07:22:26.384Z,17.37
2018-08-19T07:25:01.928Z,15.83
2018-08-19T07:27:39.815Z,15.67
2018-08-19T07:30:15.725Z,14.83
2018-08-19T07:32:51.113Z,15.33
2018-08-19T07:35:27.182Z,14.67
2018-08-19T07:38:03.481Z,15.47
2018-08-19T07:40:39.563Z,14.60
2018-08-19T07:43:14.773Z,13.93
2018-08-19T07:45:50.391Z,15.07
2018-08-19T07:48:26.382Z,16.90
2018-08-19T07:51:03.795Z,13.40
2018-08-19T07:53:39.400Z,15.57
2018-08-19T07:56:15.480Z,13.07
2018-08-19T07:59:25.014Z,14.27
2018-08-19T08:02:01.071Z,12.87
2018-08-19T08:04:42.213Z,11.93
2018-08-19T08:07:19.025Z,14.77
2018-08-19T08:09:56.305Z,13.67
2018-08-19T08:12:32.056Z,12.47
2018-08-19T08:15:09.014Z,12.17
2018-08-19T08:17:44.825Z,11.20
2018-08-19T08:20:22.377Z,13.70
2018-08-19T08:22:58.490Z,13.53
2018-08-19T08:25:34.888Z,11.47
2018-08-19T08:28:11.532Z,24.57
2018-08-19T08:30:47.161Z,12.97
2018-08-19T08:33:24.184Z,12.10
2018-08-19T08:36:00.323Z,11.47
2018-08-19T08:38:36.733Z,11.47
2018-08-19T08:41:12.949Z,11.27
2018-08-19T08:43:47.490Z,13.27
2018-08-19T08:46:24.263Z,10.07
2018-08-19T08:49:00.229Z,10.73
2018-08-19T08:51:36.788Z,9.60
2018-08-19T08:54:12.774Z,9.67
2018-08-19T08:56:51.773Z,9.47
2018-08-19T08:59:28.966Z,10.87
2018-08-19T09:02:04.112Z,10.67
2018-08-19T09:04:39.563Z,9.67
2018-08-19T09:07:15.605Z,10.43
2018-08-19T09:09:50.673Z,11.87
2018-08-19T09:12:36.948Z,9.67
2018-08-19T09:15:12.284Z,10.77
2018-08-19T09:17:47.379Z,9.80
2018-08-19T09:20:22.110Z,8.67
2018-08-19T09:22:56.918Z,9.80
2018-08-19T09:25:32.210Z,8.20
2018-08-19T09:28:06.900Z,7.40
2018-08-19T09:30:43.495Z,8.80
2018-08-19T09:33:18.174Z,8.73
2018-08-19T09:35:52.865Z,8.33
2018-08-19T09:38:27.469Z,9.13
2018-08-19T09:41:01.902Z,8.67
2018-08-19T09:43:37.213Z,8.10
2018-08-19T09:46:12.880Z,8.20
2018-08-19T09:48:48.218Z,8.60
2018-08-19T09:51:23.473Z,8.07
2018-08-19T09:53:57.946Z,8.87
2018-08-19T09:56:37.900Z,8.73
2018-08-19T09:59:13.877Z,9.97
2018-08-19T10:01:49.134Z,8.93
2018-08-19T10:04:25.922Z,8.40
2018-08-19T10:07:06.396Z,9.07
2018-08-19T10:09:41.282Z,7.33
2018-08-19T10:12:15.802Z,9.03
2018-08-19T10:14:53.316Z,8.97
2018-08-19T10:17:27.602Z,8.30
2018-08-19T10:20:02.018Z,8.00
2018-08-19T10:22:39.370Z,7.50
2018-08-19T10:25:15.121Z,6.77
2018-08-19T10:27:50.701Z,9.87
2018-08-19T10:30:25.100Z,6.87
2018-08-19T10:33:06.316Z,8.67
2018-08-19T10:35:40.840Z,7.10
2018-08-19T10:38:15.746Z,6.73
2018-08-19T10:40:57.317Z,7.77
2018-08-19T10:43:31.854Z,8.07
2018-08-19T10:46:06.261Z,6.33
2018-08-19T10:48:40.526Z,6.80
2018-08-19T10:51:14.920Z,6.73
2018-08-19T10:53:49.358Z,6.80
2018-08-19T10:56:26.099Z,6.77
2018-08-19T10:59:00.605Z,6.77
2018-08-19T11:01:35.137Z,6.70
2018-08-19T11:04:09.494Z,6.87
2018-08-19T11:06:44.057Z,7.83
2018-08-19T11:09:18.277Z,7.17
2018-08-19T11:11:52.966Z,7.43
2018-08-19T11:14:27.430Z,7.10
2018-08-19T11:17:01.750Z,6.90
2018-08-19T11:19:38.250Z,6.93
2018-08-19T11:22:12.822Z,7.40
2018-08-19T11:24:47.261Z,7.23
2018-08-19T11:27:23.752Z,6.87
2018-08-19T11:29:57.844Z,7.23
2018-08-19T11:32:36.814Z,6.67
2018-08-19T11:35:11.150Z,6.80
2018-08-19T11:37:45.944Z,6.37
2018-08-19T11:40:20.256Z,6.97
2018-08-19T11:42:54.802Z,5.80
2018-08-19T11:45:29.438Z,7.63
2018-08-19T11:48:03.857Z,6.90
2018-08-19T11:50:38.394Z,7.17
2018-08-19T11:53:12.964Z,7.10
2018-08-19T11:55:47.457Z,6.00
2018-08-19T11:58:34.482Z,9.10
2018-08-19T12:01:13.333Z,6.70
2018-08-19T12:04:00.833Z,6.77
2018-08-19T12:06:35.356Z,6.90
2018-08-19T12:09:10.698Z,6.60
2018-08-19T12:11:45.137Z,6.87
2018-08-19T12:14:19.652Z,6.30
2018-08-19T12:16:57.014Z,6.37
2018-08-19T12:19:32.170Z,6.53
2018-08-19T12:22:06.694Z,6.80
2018-08-19T12:27:10.286Z,7.00
2018-08-19T12:29:45.334Z,7.73
2018-08-19T12:32:25.558Z,7.30
2018-08-19T12:35:01.141Z,6.70
2018-08-19T12:37:35.687Z,6.50
2018-08-19T12:40:10.034Z,6.57
2018-08-19T12:42:49.733Z,7.00
2018-08-19T12:45:24.071Z,6.67
2018-08-19T12:47:59.782Z,6.37
2018-08-19T12:50:34.017Z,7.43
2018-08-19T12:53:08.516Z,9.57
2018-08-19T12:55:43.416Z,7.07
2018-08-19T12:58:17.918Z,6.47
2018-08-19T13:00:52.171Z,6.30
2018-08-19T13:03:28.007Z,7.40
2018-08-19T13:06:06.059Z,7.03
2018-08-19T13:08:40.551Z,6.67
2018-08-19T13:11:14.985Z,7.03
2018-08-19T13:13:49.613Z,9.17
2018-08-19T13:16:24.211Z,6.63
2018-08-19T13:18:58.758Z,7.70
2018-08-19T13:21:33.281Z,7.23
2018-08-19T13:24:07.817Z,7.57
2018-08-19T13:26:42.418Z,7.13
2018-08-19T13:29:16.724Z,6.80
2018-08-19T13:31:51.142Z,7.57
2018-08-19T13:34:26.519Z,6.30
2018-08-19T13:37:01.022Z,6.83
2018-08-19T13:39:35.519Z,6.60
2018-08-19T13:42:10.438Z,6.30
2018-08-19T13:44:44.797Z,6.77
2018-08-19T13:47:19.272Z,6.33
2018-08-19T13:49:53.635Z,6.73
2018-08-19T13:52:29.953Z,5.97
2018-08-19T13:55:07.811Z,6.43
2018-08-19T13:57:42.630Z,6.03
2018-08-19T14:00:20.926Z,6.43
2018-08-19T14:02:55.197Z,6.57
2018-08-19T14:05:29.756Z,6.00
2018-08-19T14:08:04.687Z,6.73
2018-08-19T14:10:39.603Z,6.27
2018-08-19T14:13:14.237Z,6.67
2018-08-19T14:15:48.577Z,6.13
2018-08-19T14:18:22.984Z,6.70
2018-08-19T14:20:57.571Z,6.07
2018-08-19T14:23:32.118Z,6.60
2018-08-19T14:26:06.749Z,6.27
2018-08-19T14:28:41.388Z,6.50
2018-08-19T14:31:15.989Z,6.97
2018-08-19T14:33:50.623Z,6.63
2018-08-19T14:36:25.410Z,6.30
2018-08-19T14:39:00.117Z,6.17
2018-08-19T14:41:34.801Z,6.80
2018-08-19T14:44:09.337Z,5.83
2018-08-19T14:46:44.088Z,6.47
2018-08-19T14:49:18.489Z,6.20
2018-08-19T14:51:56.689Z,6.50
